createdAt,value
2023-04-30T00:00:38.492Z,80.06
2023-04-30T00:03:05.053Z,80.11
2023-04-30T00:05:32.017Z,80.06
2023-04-30T00:07:58.767Z,80.55
2023-04-30T00:10:25.186Z,79.92
2023-04-30T00:12:51.608Z,80.50
2023-04-30T00:15:18.048Z,80.50
2023-04-30T00:17:44.536Z,80.46
2023-04-30T00:20:11.637Z,79.94
2023-04-30T00:22:38.898Z,80.18
2023-04-30T00:25:05.497Z,80.40
2023-04-30T00:27:31.908Z,80.41
2023-04-30T00:29:58.793Z,80.56
2023-04-30T00:32:25.447Z,80.69
2023-04-30T00:34:52.881Z,80.29
2023-04-30T00:37:19.391Z,80.61
2023-04-30T00:39:45.805Z,80.26
2023-04-30T00:42:12.269Z,80.90
2023-04-30T00:44:38.725Z,80.97
2023-04-30T00:47:05.151Z,81.20
2023-04-30T00:49:31.634Z,81.04
2023-04-30T00:51:58.098Z,81.05
2023-04-30T00:54:25.452Z,81.48
2023-04-30T00:56:52.252Z,81.30
2023-04-30T00:59:19.542Z,81.58
2023-04-30T01:01:46.316Z,81.48
2023-04-30T01:04:13.005Z,82.43
2023-04-30T01:06:39.848Z,82.28
2023-04-30T01:09:06.974Z,82.06
2023-04-30T01:11:56.302Z,82.50
2023-04-30T01:14:31.420Z,82.57
2023-04-30T01:17:35.411Z,82.18
2023-04-30T01:20:02.076Z,81.88
2023-04-30T01:22:28.508Z,82.48
2023-04-30T01:25:36.505Z,82.29
2023-04-30T01:28:22.548Z,82.98
2023-04-30T01:30:50.113Z,82.29
2023-04-30T01:33:16.646Z,82.67
2023-04-30T01:35:49.185Z,82.93
2023-04-30T01:38:37.532Z,83.15
2023-04-30T01:41:25.576Z,82.26
2023-04-30T01:44:34.657Z,82.62
2023-04-30T01:47:28.479Z,82.61
2023-04-30T01:50:08.940Z,83.17
2023-04-30T01:52:59.001Z,83.19
2023-04-30T01:55:34.838Z,83.37
2023-04-30T01:58:05.168Z,83.21
2023-04-30T02:00:31.751Z,83.47
2023-04-30T02:02:59.398Z,83.54
2023-04-30T02:05:26.118Z,84.01
2023-04-30T02:07:53.260Z,84.80
2023-04-30T02:10:22.775Z,84.91
2023-04-30T02:12:49.460Z,84.71
2023-04-30T02:15:16.296Z,84.97
2023-04-30T02:17:42.824Z,84.96
2023-04-30T02:20:09.712Z,85.29
2023-04-30T02:22:37.016Z,85.21
2023-04-30T02:25:04.077Z,85.24
2023-04-30T02:27:32.818Z,84.67
2023-04-30T02:29:59.769Z,85.06
2023-04-30T02:32:28.115Z,85.27
2023-04-30T02:34:54.625Z,85.02
2023-04-30T02:37:21.129Z,84.69
2023-04-30T02:39:47.754Z,84.86
2023-04-30T02:42:14.252Z,85.35
2023-04-30T02:44:41.177Z,85.01
2023-04-30T02:47:07.575Z,85.37
2023-04-30T02:49:33.972Z,85.41
2023-04-30T02:52:00.924Z,85.56
2023-04-30T02:54:27.456Z,85.27
2023-04-30T02:56:55.043Z,85.86
2023-04-30T02:59:21.459Z,85.95
2023-04-30T03:01:47.951Z,85.61
2023-04-30T03:04:14.372Z,85.85
2023-04-30T03:06:40.913Z,85.96
2023-04-30T03:09:09.013Z,85.71
2023-04-30T03:11:37.666Z,86.51
2023-04-30T03:14:04.985Z,86.34
2023-04-30T03:16:31.461Z,86.43
2023-04-30T03:18:58.220Z,86.20
2023-04-30T03:21:24.739Z,86.65
2023-04-30T03:23:51.669Z,86.25
2023-04-30T03:26:18.148Z,86.36
2023-04-30T03:28:44.564Z,86.48
2023-04-30T03:31:11.129Z,86.32
2023-04-30T03:33:37.792Z,86.07
2023-04-30T03:36:04.455Z,86.17
2023-04-30T03:38:31.010Z,86.71
2023-04-30T03:40:57.414Z,86.81
2023-04-30T03:43:23.882Z,86.80
2023-04-30T03:45:51.231Z,86.74
2023-04-30T03:48:18.224Z,86.42
2023-04-30T03:50:45.218Z,86.27
2023-04-30T03:53:11.696Z,86.26
2023-04-30T03:55:38.596Z,86.12
2023-04-30T03:58:05.074Z,86.26
2023-04-30T04:00:31.636Z,86.47
2023-04-30T04:02:59.512Z,86.75
2023-04-30T04:05:26.706Z,86.37
2023-04-30T04:07:53.216Z,86.57
2023-04-30T04:10:19.701Z,86.44
2023-04-30T04:12:46.550Z,86.90
2023-04-30T04:15:13.437Z,86.63
2023-04-30T04:17:40.195Z,86.91
2023-04-30T04:20:07.649Z,86.78
2023-04-30T04:22:34.145Z,87.14
2023-04-30T04:25:01.373Z,87.01
2023-04-30T04:27:27.785Z,87.01
2023-04-30T04:29:55.831Z,87.28
2023-04-30T04:32:23.426Z,87.27
2023-04-30T04:34:50.077Z,87.77
2023-04-30T04:37:17.589Z,87.38
2023-04-30T04:39:45.090Z,87.04
2023-04-30T04:42:12.065Z,87.43
2023-04-30T04:44:38.664Z,87.32
2023-04-30T04:47:05.315Z,87.35
2023-04-30T04:49:31.746Z,87.17
2023-04-30T04:51:58.282Z,87.14
2023-04-30T04:54:25.045Z,87.53
2023-04-30T04:56:51.808Z,88.03
2023-04-30T04:59:18.979Z,88.04
2023-04-30T05:01:45.780Z,88.72
2023-04-30T05:04:13.855Z,88.59
2023-04-30T05:06:41.390Z,88.86
2023-04-30T05:09:09.451Z,89.05
2023-04-30T05:11:36.421Z,89.24
2023-04-30T05:14:03.066Z,89.58
2023-04-30T05:16:29.996Z,90.03
2023-04-30T05:18:56.542Z,90.96
2023-04-30T05:21:23.216Z,91.71
2023-04-30T05:23:49.646Z,91.74
2023-04-30T05:26:16.486Z,91.14
2023-04-30T05:28:42.977Z,90.99
2023-04-30T05:31:09.443Z,89.80
2023-04-30T05:33:37.164Z,88.53
2023-04-30T05:36:03.838Z,86.36
2023-04-30T05:38:30.285Z,82.81
2023-04-30T05:40:56.740Z,79.00
2023-04-30T05:43:23.246Z,76.11
2023-04-30T05:45:49.791Z,74.07
2023-04-30T05:48:16.347Z,72.93
2023-04-30T05:50:43.479Z,71.31
2023-04-30T05:53:10.029Z,70.25
2023-04-30T05:55:36.436Z,71.19
2023-04-30T05:58:02.885Z,71.49
2023-04-30T06:00:29.403Z,73.46
2023-04-30T06:02:55.999Z,75.87
2023-04-30T06:05:22.508Z,78.86
2023-04-30T06:07:48.997Z,81.20
2023-04-30T06:10:15.695Z,82.53
2023-04-30T06:12:42.210Z,83.87
2023-04-30T06:15:08.878Z,84.24
2023-04-30T06:17:35.396Z,85.44
2023-04-30T06:20:06.616Z,86.08
2023-04-30T06:22:34.231Z,86.71
2023-04-30T06:25:01.776Z,86.63
2023-04-30T06:27:28.203Z,85.88
2023-04-30T06:29:55.015Z,86.32
2023-04-30T06:32:21.713Z,87.61
2023-04-30T06:34:48.218Z,87.43
2023-04-30T06:37:14.658Z,87.23
2023-04-30T06:39:41.054Z,86.76
2023-04-30T06:42:07.482Z,87.11
2023-04-30T06:44:33.897Z,86.66
2023-04-30T06:47:01.126Z,87.15
2023-04-30T06:49:27.562Z,86.95
2023-04-30T06:51:55.711Z,87.81
2023-04-30T06:54:22.890Z,87.97
2023-04-30T06:56:49.321Z,86.43
2023-04-30T06:59:16.609Z,86.74
2023-04-30T07:01:43.157Z,86.26
2023-04-30T07:04:09.877Z,85.64
2023-04-30T07:06:36.716Z,85.24
2023-04-30T07:09:03.725Z,85.58
2023-04-30T07:11:30.127Z,84.67
2023-04-30T07:13:56.866Z,84.55
2023-04-30T07:16:25.620Z,83.99
2023-04-30T07:18:54.421Z,83.68
2023-04-30T07:21:21.871Z,83.30
2023-04-30T07:23:48.774Z,82.47
2023-04-30T07:26:15.925Z,82.18
2023-04-30T07:28:42.404Z,81.64
2023-04-30T07:31:09.006Z,81.45
2023-04-30T07:33:35.485Z,81.11
2023-04-30T07:36:01.925Z,81.12
2023-04-30T07:38:29.415Z,80.85
2023-04-30T07:40:55.909Z,80.42
2023-04-30T07:43:23.101Z,79.79
2023-04-30T07:45:50.101Z,80.33
2023-04-30T07:48:17.209Z,80.10
2023-04-30T07:50:43.639Z,80.44
2023-04-30T07:53:10.149Z,79.08
2023-04-30T07:55:36.949Z,79.29
2023-04-30T07:58:04.425Z,78.48
2023-04-30T08:00:31.236Z,78.66
2023-04-30T08:02:59.339Z,78.18
2023-04-30T08:05:27.932Z,77.75
2023-04-30T08:07:54.342Z,78.73
2023-04-30T08:10:20.903Z,78.97
2023-04-30T08:12:47.560Z,77.02
2023-04-30T08:15:14.227Z,77.99
2023-04-30T08:17:40.749Z,77.38
2023-04-30T08:20:08.086Z,77.62
2023-04-30T08:22:34.518Z,77.05
2023-04-30T08:25:02.190Z,76.33
2023-04-30T08:27:31.305Z,76.11
2023-04-30T08:29:58.040Z,75.75
2023-04-30T08:32:24.779Z,75.33
2023-04-30T08:34:51.693Z,74.79
2023-04-30T08:37:18.155Z,74.47
2023-04-30T08:39:44.572Z,74.89
2023-04-30T08:42:14.483Z,73.26
2023-04-30T08:44:44.016Z,74.20
2023-04-30T08:47:14.323Z,74.42
2023-04-30T08:49:41.415Z,73.12
2023-04-30T08:52:08.587Z,72.42
2023-04-30T08:54:38.212Z,72.95
2023-04-30T08:57:05.442Z,72.41
2023-04-30T08:59:34.271Z,72.07
2023-04-30T09:02:01.992Z,71.06
2023-04-30T09:04:29.147Z,70.54
2023-04-30T09:06:59.024Z,68.66
2023-04-30T09:09:30.072Z,70.20
2023-04-30T09:12:17.809Z,68.72
2023-04-30T09:15:02.315Z,69.82
2023-04-30T09:17:29.888Z,68.38
2023-04-30T09:20:13.117Z,67.99
2023-04-30T09:22:42.447Z,67.85
2023-04-30T09:25:10.236Z,67.60
2023-04-30T09:27:36.744Z,67.62
2023-04-30T09:30:05.636Z,66.58
2023-04-30T09:32:32.133Z,65.82
2023-04-30T09:34:58.597Z,65.85
2023-04-30T09:37:38.424Z,65.69
2023-04-30T09:40:05.523Z,64.79
2023-04-30T09:42:32.074Z,64.97
2023-04-30T09:44:58.544Z,63.64
2023-04-30T09:47:32.354Z,63.94
2023-04-30T09:50:00.018Z,63.57
2023-04-30T09:52:26.957Z,63.54
2023-04-30T09:54:53.452Z,65.84
2023-04-30T09:57:23.064Z,63.98
2023-04-30T09:59:52.507Z,64.85
2023-04-30T10:02:20.241Z,63.19
2023-04-30T10:04:55.603Z,64.70
2023-04-30T10:07:24.452Z,64.52
2023-04-30T10:09:57.649Z,64.12
2023-04-30T10:12:38.554Z,63.74
2023-04-30T10:15:13.272Z,63.23
2023-04-30T10:17:41.547Z,63.58
2023-04-30T10:20:10.370Z,62.68
2023-04-30T10:22:37.290Z,62.55
2023-04-30T10:25:05.383Z,61.99
2023-04-30T10:27:33.520Z,61.98
2023-04-30T10:30:01.036Z,61.07
2023-04-30T10:32:34.347Z,62.36
2023-04-30T10:35:26.262Z,61.88
2023-04-30T10:38:04.373Z,60.63
2023-04-30T10:40:36.998Z,60.67
2023-04-30T10:43:03.437Z,60.45
2023-04-30T10:45:38.091Z,60.25
2023-04-30T10:48:07.365Z,60.11
2023-04-30T10:50:41.948Z,59.15
2023-04-30T10:53:17.413Z,60.81
2023-04-30T10:55:49.358Z,59.83
2023-04-30T10:58:34.109Z,59.02
2023-04-30T11:01:22.212Z,60.31
2023-04-30T11:04:09.204Z,60.68
2023-04-30T11:06:57.092Z,59.52
2023-04-30T11:09:45.181Z,59.30
2023-04-30T11:12:19.508Z,60.15
2023-04-30T11:14:46.568Z,59.06
2023-04-30T11:17:24.025Z,58.27
2023-04-30T11:19:52.277Z,58.66
2023-04-30T11:22:24.377Z,58.32
2023-04-30T11:24:51.479Z,58.03
2023-04-30T11:27:22.674Z,59.34
2023-04-30T11:29:51.264Z,58.08
2023-04-30T11:32:19.163Z,57.96
2023-04-30T11:34:46.159Z,57.09
2023-04-30T11:37:16.987Z,57.36
2023-04-30T11:39:43.778Z,56.67
2023-04-30T11:42:10.329Z,56.81
2023-04-30T11:44:38.613Z,58.02
2023-04-30T11:47:05.238Z,56.99
2023-04-30T11:49:32.312Z,56.38
2023-04-30T11:52:01.818Z,56.29
2023-04-30T11:54:32.183Z,55.38
2023-04-30T11:57:03.886Z,55.26
2023-04-30T11:59:44.851Z,56.00
2023-04-30T12:02:16.093Z,55.07
2023-04-30T12:04:47.124Z,54.58
2023-04-30T12:07:13.618Z,55.44
2023-04-30T12:09:54.681Z,54.58
2023-04-30T12:12:31.744Z,54.43
2023-04-30T12:14:58.428Z,54.55
2023-04-30T12:17:35.107Z,54.84
2023-04-30T12:20:01.884Z,54.30
2023-04-30T12:22:28.770Z,54.63
2023-04-30T12:24:56.534Z,53.45
2023-04-30T12:27:23.213Z,53.12
2023-04-30T12:29:54.801Z,52.94
2023-04-30T12:32:22.565Z,53.12
2023-04-30T12:34:49.352Z,50.73
2023-04-30T12:37:19.146Z,52.23
2023-04-30T12:39:45.708Z,52.55
2023-04-30T12:42:12.195Z,53.28
2023-04-30T12:44:45.351Z,52.82
2023-04-30T12:47:12.174Z,53.01
2023-04-30T12:49:38.664Z,52.44
2023-04-30T12:52:08.665Z,51.80
2023-04-30T12:54:36.785Z,52.28
2023-04-30T12:57:05.330Z,50.81
2023-04-30T12:59:33.628Z,50.49
2023-04-30T13:02:14.703Z,52.26
2023-04-30T13:04:42.688Z,50.91
2023-04-30T13:07:09.262Z,50.15
2023-04-30T13:09:37.256Z,50.01
2023-04-30T13:12:04.580Z,50.05
2023-04-30T13:14:38.062Z,50.00
2023-04-30T13:17:06.945Z,50.85
2023-04-30T13:19:34.730Z,49.52
2023-04-30T13:22:01.773Z,48.42
2023-04-30T13:24:28.208Z,47.67
2023-04-30T13:26:54.688Z,46.68
2023-04-30T13:29:21.136Z,46.84
2023-04-30T13:31:49.121Z,46.27
2023-04-30T13:34:15.717Z,45.98
2023-04-30T13:36:42.454Z,46.41
2023-04-30T13:39:08.888Z,46.06
2023-04-30T13:41:35.436Z,45.65
2023-04-30T13:44:01.831Z,45.79
2023-04-30T13:46:28.376Z,46.24
2023-04-30T13:48:54.867Z,46.24
2023-04-30T13:51:21.307Z,44.93
2023-04-30T13:53:48.080Z,44.91
2023-04-30T13:56:15.430Z,44.26
2023-04-30T13:58:41.867Z,44.93
2023-04-30T14:01:09.136Z,45.56
2023-04-30T14:03:35.678Z,43.67
2023-04-30T14:06:02.288Z,44.15
2023-04-30T14:08:28.841Z,44.43
2023-04-30T14:10:55.874Z,43.74
2023-04-30T14:13:24.609Z,45.40
2023-04-30T14:15:51.815Z,44.78
2023-04-30T14:18:22.505Z,45.53
2023-04-30T14:20:49.150Z,44.73
2023-04-30T14:23:15.851Z,43.87
2023-04-30T14:25:42.478Z,43.83
2023-04-30T14:28:08.887Z,45.54
2023-04-30T14:30:35.304Z,44.21
2023-04-30T14:33:01.781Z,43.56
2023-04-30T14:35:28.354Z,43.93
2023-04-30T14:37:54.762Z,43.31
2023-04-30T14:40:21.361Z,43.98
2023-04-30T14:42:47.839Z,43.26
2023-04-30T14:45:14.307Z,42.32
2023-04-30T14:47:41.554Z,43.79
2023-04-30T14:50:08.329Z,44.91
2023-04-30T14:52:34.775Z,44.50
2023-04-30T14:55:01.321Z,44.24
2023-04-30T14:57:28.091Z,44.24
2023-04-30T14:59:57.684Z,44.74
2023-04-30T15:02:24.391Z,44.57
2023-04-30T15:04:50.954Z,44.95
2023-04-30T15:07:18.596Z,44.58
2023-04-30T15:09:46.696Z,44.68
2023-04-30T15:12:13.275Z,44.81
2023-04-30T15:14:39.942Z,44.24
2023-04-30T15:17:06.839Z,45.27
2023-04-30T15:19:33.282Z,44.91
2023-04-30T15:21:59.875Z,45.57
2023-04-30T15:24:29.441Z,45.56
2023-04-30T15:26:55.903Z,45.92
2023-04-30T15:29:22.405Z,45.56
2023-04-30T15:31:51.869Z,45.56
2023-04-30T15:34:18.574Z,44.65
2023-04-30T15:36:45.485Z,45.16
2023-04-30T15:39:12.003Z,45.28
2023-04-30T15:41:38.491Z,44.33
2023-04-30T15:44:04.899Z,43.94
2023-04-30T15:46:31.535Z,43.78
2023-04-30T15:48:57.997Z,43.37
2023-04-30T15:51:24.418Z,44.74
2023-04-30T15:53:50.859Z,45.28
2023-04-30T15:56:18.528Z,45.85
2023-04-30T15:58:44.962Z,46.31
2023-04-30T16:01:11.451Z,46.79
2023-04-30T16:03:38.210Z,46.51
2023-04-30T16:06:04.821Z,46.84
2023-04-30T16:08:31.413Z,46.04
2023-04-30T16:10:57.895Z,45.07
2023-04-30T16:13:25.085Z,44.35
2023-04-30T16:15:51.625Z,45.33
2023-04-30T16:18:18.045Z,44.08
2023-04-30T16:20:47.259Z,44.05
2023-04-30T16:23:13.740Z,43.53
2023-04-30T16:25:40.791Z,42.59
2023-04-30T16:28:07.302Z,42.58
2023-04-30T16:30:34.356Z,43.34
2023-04-30T16:33:00.917Z,43.36
2023-04-30T16:35:27.432Z,43.24
2023-04-30T16:37:55.933Z,42.93
2023-04-30T16:40:22.385Z,44.07
2023-04-30T16:42:49.870Z,43.19
2023-04-30T16:45:17.215Z,43.37
2023-04-30T16:47:43.774Z,43.06
2023-04-30T16:50:11.300Z,43.57
2023-04-30T16:52:37.802Z,43.15
2023-04-30T16:55:05.125Z,43.52
2023-04-30T16:57:31.867Z,44.32
2023-04-30T17:00:01.442Z,44.03
2023-04-30T17:02:29.850Z,43.71
2023-04-30T17:04:57.047Z,44.18
2023-04-30T17:07:24.439Z,43.43
2023-04-30T17:09:50.919Z,43.16
2023-04-30T17:12:17.404Z,43.62
2023-04-30T17:14:46.844Z,44.17
2023-04-30T17:17:13.356Z,44.87
2023-04-30T17:19:39.764Z,45.24
2023-04-30T17:22:06.187Z,45.16
2023-04-30T17:24:32.608Z,45.77
2023-04-30T17:27:00.864Z,45.71
2023-04-30T17:29:27.365Z,45.97
2023-04-30T17:31:54.370Z,45.30
2023-04-30T17:34:20.934Z,45.65
2023-04-30T17:36:48.888Z,46.13
2023-04-30T17:39:15.566Z,46.82
2023-04-30T17:41:42.330Z,47.17
2023-04-30T17:44:08.788Z,47.05
2023-04-30T17:46:35.680Z,47.37
2023-04-30T17:49:03.480Z,47.22
2023-04-30T17:51:31.639Z,47.83
2023-04-30T17:53:59.697Z,47.92
2023-04-30T17:56:28.558Z,48.17
2023-04-30T17:58:55.932Z,47.86
2023-04-30T18:01:23.248Z,48.65
2023-04-30T18:03:50.673Z,48.92
2023-04-30T18:06:17.306Z,49.14
2023-04-30T18:08:44.556Z,49.60
2023-04-30T18:11:11.166Z,49.80
2023-04-30T18:13:37.857Z,49.86
2023-04-30T18:16:06.788Z,50.39
2023-04-30T18:18:33.247Z,50.07
2023-04-30T18:21:00.498Z,50.39
2023-04-30T18:23:27.082Z,50.91
2023-04-30T18:25:53.604Z,50.94
2023-04-30T18:28:20.096Z,51.35
2023-04-30T18:30:46.511Z,51.20
2023-04-30T18:33:13.108Z,51.58
2023-04-30T18:35:39.594Z,51.72
2023-04-30T18:38:11.091Z,51.53
2023-04-30T18:40:38.090Z,52.23
2023-04-30T18:43:05.319Z,52.35
2023-04-30T18:45:31.909Z,52.62
2023-04-30T18:47:58.399Z,52.98
2023-04-30T18:50:25.563Z,52.81
2023-04-30T18:52:51.987Z,53.77
2023-04-30T18:55:18.563Z,53.73
2023-04-30T18:57:45.051Z,54.00
2023-04-30T19:00:14.030Z,54.02
2023-04-30T19:02:40.701Z,54.83
2023-04-30T19:05:07.547Z,54.65
2023-04-30T19:07:34.028Z,54.52
2023-04-30T19:10:00.780Z,55.16
2023-04-30T19:12:27.228Z,55.35
2023-04-30T19:14:53.670Z,56.00
2023-04-30T19:17:21.835Z,56.13
2023-04-30T19:19:50.055Z,56.54
2023-04-30T19:22:17.192Z,56.80
2023-04-30T19:24:43.647Z,57.43
2023-04-30T19:27:10.332Z,57.28
2023-04-30T19:29:39.335Z,57.38
2023-04-30T19:32:06.485Z,58.24
2023-04-30T19:34:33.095Z,58.12
2023-04-30T19:36:59.535Z,58.25
2023-04-30T19:39:33.923Z,58.40
2023-04-30T19:42:00.389Z,58.67
2023-04-30T19:44:32.284Z,59.08
2023-04-30T19:46:58.824Z,59.21
2023-04-30T19:49:26.498Z,59.38
2023-04-30T19:51:53.534Z,59.70
2023-04-30T19:54:20.036Z,60.07
2023-04-30T19:56:46.554Z,60.01
2023-04-30T19:59:13.910Z,60.46
2023-04-30T20:01:41.675Z,60.67
2023-04-30T20:04:08.342Z,60.99
2023-04-30T20:06:34.908Z,61.35
2023-04-30T20:09:05.025Z,61.32
2023-04-30T20:11:33.016Z,61.56
2023-04-30T20:13:59.478Z,61.76
2023-04-30T20:16:26.029Z,61.93
2023-04-30T20:18:52.502Z,62.47
2023-04-30T20:21:20.635Z,62.82
2023-04-30T20:23:47.278Z,62.88
2023-04-30T20:26:13.710Z,62.73
2023-04-30T20:28:40.345Z,62.72
2023-04-30T20:31:11.264Z,63.28
2023-04-30T20:33:37.793Z,63.39
2023-04-30T20:36:04.527Z,63.41
2023-04-30T20:38:31.002Z,63.69
2023-04-30T20:40:58.549Z,63.81
2023-04-30T20:43:25.153Z,63.58
2023-04-30T20:45:51.603Z,63.62
2023-04-30T20:48:18.272Z,63.98
2023-04-30T20:50:45.536Z,63.99
2023-04-30T20:53:12.471Z,64.18
2023-04-30T20:55:38.897Z,64.43
2023-04-30T20:58:05.378Z,64.47
2023-04-30T21:00:31.875Z,64.44
2023-04-30T21:02:58.496Z,64.64
2023-04-30T21:05:25.206Z,64.83
2023-04-30T21:07:52.293Z,65.18
2023-04-30T21:10:18.799Z,65.58
2023-04-30T21:12:45.291Z,65.78
2023-04-30T21:15:12.156Z,65.87
2023-04-30T21:17:38.631Z,65.25
2023-04-30T21:20:05.597Z,65.13
2023-04-30T21:22:33.023Z,65.36
2023-04-30T21:24:59.445Z,64.51
2023-04-30T21:27:25.873Z,64.96
2023-04-30T21:29:52.358Z,64.95
2023-04-30T21:32:18.840Z,64.95
2023-04-30T21:34:45.316Z,65.00
2023-04-30T21:37:11.984Z,65.12
2023-04-30T21:39:38.452Z,65.40
2023-04-30T21:42:05.188Z,65.57
2023-04-30T21:44:32.913Z,65.31
2023-04-30T21:47:00.018Z,65.96
2023-04-30T21:49:27.119Z,65.92
2023-04-30T21:51:53.741Z,66.58
2023-04-30T21:54:20.372Z,66.63
2023-04-30T21:56:46.830Z,66.53
2023-04-30T21:59:13.263Z,66.76
2023-04-30T22:01:39.757Z,66.89
2023-04-30T22:04:06.285Z,66.85
2023-04-30T22:06:34.719Z,67.24
2023-04-30T22:09:01.282Z,67.08
2023-04-30T22:11:28.050Z,67.52
2023-04-30T22:13:54.453Z,67.60
2023-04-30T22:16:21.004Z,67.54
2023-04-30T22:18:47.606Z,68.09
2023-04-30T22:21:14.012Z,68.06
2023-04-30T22:23:40.626Z,67.81
2023-04-30T22:26:09.892Z,68.07
2023-04-30T22:28:37.359Z,68.18
2023-04-30T22:31:04.534Z,68.43
2023-04-30T22:33:35.915Z,68.45
2023-04-30T22:36:06.645Z,68.33
2023-04-30T22:38:33.474Z,68.26
2023-04-30T22:41:00.642Z,68.90
2023-04-30T22:43:30.770Z,69.02
2023-04-30T22:46:01.685Z,68.97
2023-04-30T22:48:29.086Z,69.33
2023-04-30T22:50:56.432Z,69.49
2023-04-30T22:53:23.072Z,69.47
2023-04-30T22:55:50.093Z,69.41
2023-04-30T22:58:17.443Z,69.44
2023-04-30T23:00:44.806Z,69.42
2023-04-30T23:03:11.471Z,69.64
2023-04-30T23:05:37.995Z,70.09
2023-04-30T23:08:04.814Z,70.14
2023-04-30T23:10:31.274Z,70.26
2023-04-30T23:12:58.775Z,70.11
2023-04-30T23:15:26.055Z,70.68
2023-04-30T23:17:54.508Z,70.72
2023-04-30T23:20:22.631Z,70.71
2023-04-30T23:22:49.424Z,70.80
2023-04-30T23:25:16.751Z,71.06
2023-04-30T23:27:44.375Z,71.29
2023-04-30T23:30:11.415Z,71.49
2023-04-30T23:32:37.978Z,71.52
2023-04-30T23:35:05.207Z,71.80
2023-04-30T23:37:32.509Z,71.89
2023-04-30T23:40:00.802Z,72.15
2023-04-30T23:42:27.217Z,72.23
2023-04-30T23:44:53.895Z,72.18
2023-04-30T23:47:20.876Z,72.52
2023-04-30T23:49:47.349Z,72.59
2023-04-30T23:52:14.530Z,72.65
2023-04-30T23:54:41.021Z,72.92
2023-04-30T23:57:07.441Z,73.09
2023-04-30T23:59:33.886Z,73.24
